sensor_id;sensor_type;location;lat;lon;timestamp;temperature;humidity
9118;DHT22;4594;50.994;7.126;2024-02-23T00:02:18;9.50;61.50
9118;DHT22;4594;50.994;7.126;2024-02-23T00:04:44;9.20;61.20
9118;DHT22;4594;50.994;7.126;2024-02-23T00:07:10;9.20;61.30
9118;DHT22;4594;50.994;7.126;2024-02-23T00:09:37;9.20;61.10
9118;DHT22;4594;50.994;7.126;2024-02-23T00:12:03;9.20;61.00
9118;DHT22;4594;50.994;7.126;2024-02-23T00:14:30;9.30;60.70
9118;DHT22;4594;50.994;7.126;2024-02-23T00:17:01;9.30;60.30
9118;DHT22;4594;50.994;7.126;2024-02-23T00:19:29;9.30;60.30
9118;DHT22;4594;50.994;7.126;2024-02-23T00:21:56;9.20;60.00
9118;DHT22;4594;50.994;7.126;2024-02-23T00:24:27;9.30;60.00
9118;DHT22;4594;50.994;7.126;2024-02-23T00:26:53;9.30;60.10
9118;DHT22;4594;50.994;7.126;2024-02-23T00:29:19;9.30;60.10
9118;DHT22;4594;50.994;7.126;2024-02-23T00:31:46;9.30;60.20
9118;DHT22;4594;50.994;7.126;2024-02-23T00:34:12;9.30;60.20
9118;DHT22;4594;50.994;7.126;2024-02-23T00:36:42;9.30;60.30
9118;DHT22;4594;50.994;7.126;2024-02-23T00:39:10;9.30;59.30
9118;DHT22;4594;50.994;7.126;2024-02-23T00:41:36;9.30;59.80
9118;DHT22;4594;50.994;7.126;2024-02-23T00:44:02;9.30;59.80
9118;DHT22;4594;50.994;7.126;2024-02-23T00:46:29;9.30;59.10
9118;DHT22;4594;50.994;7.126;2024-02-23T00:48:54;9.30;58.80
9118;DHT22;4594;50.994;7.126;2024-02-23T00:51:21;9.20;58.50
9118;DHT22;4594;50.994;7.126;2024-02-23T00:53:46;9.20;58.30
9118;DHT22;4594;50.994;7.126;2024-02-23T00:56:12;9.40;58.40
9118;DHT22;4594;50.994;7.126;2024-02-23T00:58:40;9.10;58.30
9118;DHT22;4594;50.994;7.126;2024-02-23T01:01:06;9.00;58.30
9118;DHT22;4594;50.994;7.126;2024-02-23T01:03:32;9.00;58.40
9118;DHT22;4594;50.994;7.126;2024-02-23T01:05:58;8.90;58.60
9118;DHT22;4594;50.994;7.126;2024-02-23T01:08:23;8.90;58.80
9118;DHT22;4594;50.994;7.126;2024-02-23T01:10:49;8.90;59.30
9118;DHT22;4594;50.994;7.126;2024-02-23T01:13:15;8.80;59.00
9118;DHT22;4594;50.994;7.126;2024-02-23T01:15:41;8.80;58.90
9118;DHT22;4594;50.994;7.126;2024-02-23T01:18:07;8.80;58.90
9118;DHT22;4594;50.994;7.126;2024-02-23T01:20:33;8.70;59.20
9118;DHT22;4594;50.994;7.126;2024-02-23T01:23:00;8.70;59.30
9118;DHT22;4594;50.994;7.126;2024-02-23T01:25:26;8.80;59.50
9118;DHT22;4594;50.994;7.126;2024-02-23T01:27:51;8.70;59.70
9118;DHT22;4594;50.994;7.126;2024-02-23T01:30:17;8.70;59.80
9118;DHT22;4594;50.994;7.126;2024-02-23T01:32:44;8.70;59.90
9118;DHT22;4594;50.994;7.126;2024-02-23T01:35:11;8.70;59.90
9118;DHT22;4594;50.994;7.126;2024-02-23T01:37:36;9.00;60.30
9118;DHT22;4594;50.994;7.126;2024-02-23T01:40:02;8.70;60.00
9118;DHT22;4594;50.994;7.126;2024-02-23T01:42:29;8.70;60.10
9118;DHT22;4594;50.994;7.126;2024-02-23T01:44:55;8.70;60.30
9118;DHT22;4594;50.994;7.126;2024-02-23T01:47:28;8.80;60.50
9118;DHT22;4594;50.994;7.126;2024-02-23T01:49:55;8.90;59.40
9118;DHT22;4594;50.994;7.126;2024-02-23T01:52:23;8.70;60.00
9118;DHT22;4594;50.994;7.126;2024-02-23T01:54:49;8.70;59.90
9118;DHT22;4594;50.994;7.126;2024-02-23T01:57:16;8.70;59.80
9118;DHT22;4594;50.994;7.126;2024-02-23T01:59:42;8.60;59.80
9118;DHT22;4594;50.994;7.126;2024-02-23T02:02:08;8.80;59.80
9118;DHT22;4594;50.994;7.126;2024-02-23T02:04:34;8.60;59.60
9118;DHT22;4594;50.994;7.126;2024-02-23T02:07:00;9.10;60.20
9118;DHT22;4594;50.994;7.126;2024-02-23T02:09:26;8.60;59.70
9118;DHT22;4594;50.994;7.126;2024-02-23T02:11:52;8.60;59.90
9118;DHT22;4594;50.994;7.126;2024-02-23T02:14:19;8.70;60.00
9118;DHT22;4594;50.994;7.126;2024-02-23T02:16:45;8.60;59.90
9118;DHT22;4594;50.994;7.126;2024-02-23T02:19:11;8.70;59.90
9118;DHT22;4594;50.994;7.126;2024-02-23T02:21:39;8.70;59.80
9118;DHT22;4594;50.994;7.126;2024-02-23T02:24:06;8.60;59.60
9118;DHT22;4594;50.994;7.126;2024-02-23T02:26:32;8.60;59.70
9118;DHT22;4594;50.994;7.126;2024-02-23T02:28:58;8.60;59.90
9118;DHT22;4594;50.994;7.126;2024-02-23T02:31:24;8.70;60.10
9118;DHT22;4594;50.994;7.126;2024-02-23T02:33:50;8.60;59.90
9118;DHT22;4594;50.994;7.126;2024-02-23T02:36:16;8.60;60.00
9118;DHT22;4594;50.994;7.126;2024-02-23T02:38:41;8.80;60.10
9118;DHT22;4594;50.994;7.126;2024-02-23T02:41:08;8.60;59.30
9118;DHT22;4594;50.994;7.126;2024-02-23T02:43:34;8.60;59.00
9118;DHT22;4594;50.994;7.126;2024-02-23T02:45:59;8.60;58.90
9118;DHT22;4594;50.994;7.126;2024-02-23T02:48:25;8.60;58.90
9118;DHT22;4594;50.994;7.126;2024-02-23T02:50:51;8.50;59.00
9118;DHT22;4594;50.994;7.126;2024-02-23T02:53:17;8.50;58.70
9118;DHT22;4594;50.994;7.126;2024-02-23T02:55:44;8.50;58.60
9118;DHT22;4594;50.994;7.126;2024-02-23T02:58:13;8.50;58.50
9118;DHT22;4594;50.994;7.126;2024-02-23T03:00:39;8.40;57.80
9118;DHT22;4594;50.994;7.126;2024-02-23T03:03:05;8.40;58.30
9118;DHT22;4594;50.994;7.126;2024-02-23T03:05:31;8.40;58.00
9118;DHT22;4594;50.994;7.126;2024-02-23T03:07:57;8.30;57.90
9118;DHT22;4594;50.994;7.126;2024-02-23T03:10:22;8.30;57.90
9118;DHT22;4594;50.994;7.126;2024-02-23T03:12:48;8.30;57.80
9118;DHT22;4594;50.994;7.126;2024-02-23T03:15:14;8.20;57.70
9118;DHT22;4594;50.994;7.126;2024-02-23T03:17:40;8.20;57.70
9118;DHT22;4594;50.994;7.126;2024-02-23T03:20:06;8.20;57.80
9118;DHT22;4594;50.994;7.126;2024-02-23T03:22:39;8.10;57.50
9118;DHT22;4594;50.994;7.126;2024-02-23T03:25:05;8.10;57.60
9118;DHT22;4594;50.994;7.126;2024-02-23T03:27:36;8.10;57.60
9118;DHT22;4594;50.994;7.126;2024-02-23T03:30:06;8.00;57.60
9118;DHT22;4594;50.994;7.126;2024-02-23T03:32:35;8.00;57.20
9118;DHT22;4594;50.994;7.126;2024-02-23T03:35:07;8.00;58.00
9118;DHT22;4594;50.994;7.126;2024-02-23T03:37:33;8.00;58.10
9118;DHT22;4594;50.994;7.126;2024-02-23T03:39:59;8.00;58.10
9118;DHT22;4594;50.994;7.126;2024-02-23T03:42:26;7.90;57.90
9118;DHT22;4594;50.994;7.126;2024-02-23T03:44:52;7.90;57.70
9118;DHT22;4594;50.994;7.126;2024-02-23T03:47:18;7.90;57.40
9118;DHT22;4594;50.994;7.126;2024-02-23T03:49:44;7.80;57.40
9118;DHT22;4594;50.994;7.126;2024-02-23T03:52:10;7.80;57.10
9118;DHT22;4594;50.994;7.126;2024-02-23T03:54:35;7.80;57.10
9118;DHT22;4594;50.994;7.126;2024-02-23T03:57:01;7.70;56.90
9118;DHT22;4594;50.994;7.126;2024-02-23T03:59:28;7.80;57.00
9118;DHT22;4594;50.994;7.126;2024-02-23T04:01:53;7.80;57.20
9118;DHT22;4594;50.994;7.126;2024-02-23T04:04:19;7.60;57.40
9118;DHT22;4594;50.994;7.126;2024-02-23T04:06:45;7.60;57.80
9118;DHT22;4594;50.994;7.126;2024-02-23T04:09:10;7.60;58.10
9118;DHT22;4594;50.994;7.126;2024-02-23T04:11:36;7.60;58.30
9118;DHT22;4594;50.994;7.126;2024-02-23T04:14:02;7.60;58.50
9118;DHT22;4594;50.994;7.126;2024-02-23T04:16:30;7.60;58.60
9118;DHT22;4594;50.994;7.126;2024-02-23T04:18:57;7.60;58.60
9118;DHT22;4594;50.994;7.126;2024-02-23T04:21:22;7.70;58.80
9118;DHT22;4594;50.994;7.126;2024-02-23T04:23:49;7.80;59.00
9118;DHT22;4594;50.994;7.126;2024-02-23T04:26:14;7.70;58.90
9118;DHT22;4594;50.994;7.126;2024-02-23T04:28:41;7.70;59.00
9118;DHT22;4594;50.994;7.126;2024-02-23T04:31:08;7.70;59.00
9118;DHT22;4594;50.994;7.126;2024-02-23T04:33:35;7.70;58.60
9118;DHT22;4594;50.994;7.126;2024-02-23T04:36:02;7.80;58.80
9118;DHT22;4594;50.994;7.126;2024-02-23T04:38:30;7.80;58.80
9118;DHT22;4594;50.994;7.126;2024-02-23T04:40:56;7.80;58.90
9118;DHT22;4594;50.994;7.126;2024-02-23T04:43:22;7.80;58.80
9118;DHT22;4594;50.994;7.126;2024-02-23T04:45:49;7.80;58.90
9118;DHT22;4594;50.994;7.126;2024-02-23T04:48:14;7.80;58.90
9118;DHT22;4594;50.994;7.126;2024-02-23T04:50:40;7.80;58.80
9118;DHT22;4594;50.994;7.126;2024-02-23T04:53:05;7.90;59.10
9118;DHT22;4594;50.994;7.126;2024-02-23T04:55:31;7.90;59.10
9118;DHT22;4594;50.994;7.126;2024-02-23T04:57:57;7.90;59.10
9118;DHT22;4594;50.994;7.126;2024-02-23T05:00:22;7.90;59.00
9118;DHT22;4594;50.994;7.126;2024-02-23T05:02:48;7.90;59.00
9118;DHT22;4594;50.994;7.126;2024-02-23T05:05:14;7.90;59.00
9118;DHT22;4594;50.994;7.126;2024-02-23T05:07:40;7.90;59.00
9118;DHT22;4594;50.994;7.126;2024-02-23T05:10:06;7.90;58.80
9118;DHT22;4594;50.994;7.126;2024-02-23T05:12:32;7.90;58.70
9118;DHT22;4594;50.994;7.126;2024-02-23T05:14:58;8.00;58.80
9118;DHT22;4594;50.994;7.126;2024-02-23T05:17:23;8.00;58.60
9118;DHT22;4594;50.994;7.126;2024-02-23T05:19:49;8.00;58.60
9118;DHT22;4594;50.994;7.126;2024-02-23T05:22:15;7.90;58.60
9118;DHT22;4594;50.994;7.126;2024-02-23T05:24:40;8.00;58.70
9118;DHT22;4594;50.994;7.126;2024-02-23T05:27:06;7.90;58.70
9118;DHT22;4594;50.994;7.126;2024-02-23T05:29:32;8.00;58.80
9118;DHT22;4594;50.994;7.126;2024-02-23T05:31:57;8.00;58.80
9118;DHT22;4594;50.994;7.126;2024-02-23T05:34:23;8.00;58.70
9118;DHT22;4594;50.994;7.126;2024-02-23T05:36:50;8.00;58.60
9118;DHT22;4594;50.994;7.126;2024-02-23T05:39:16;8.00;58.20
9118;DHT22;4594;50.994;7.126;2024-02-23T05:41:43;7.90;57.90
9118;DHT22;4594;50.994;7.126;2024-02-23T05:44:09;7.90;57.60
9118;DHT22;4594;50.994;7.126;2024-02-23T05:46:36;7.90;57.20
9118;DHT22;4594;50.994;7.126;2024-02-23T05:49:03;7.80;57.20
9118;DHT22;4594;50.994;7.126;2024-02-23T05:51:31;7.80;56.80
9118;DHT22;4594;50.994;7.126;2024-02-23T05:53:58;7.70;56.70
9118;DHT22;4594;50.994;7.126;2024-02-23T05:56:24;7.70;56.40
9118;DHT22;4594;50.994;7.126;2024-02-23T05:58:50;7.60;56.30
9118;DHT22;4594;50.994;7.126;2024-02-23T06:01:17;7.60;56.30
9118;DHT22;4594;50.994;7.126;2024-02-23T06:03:43;7.50;56.40
9118;DHT22;4594;50.994;7.126;2024-02-23T06:06:10;7.40;56.80
9118;DHT22;4594;50.994;7.126;2024-02-23T06:08:36;7.40;57.20
9118;DHT22;4594;50.994;7.126;2024-02-23T06:11:02;7.40;57.40
9118;DHT22;4594;50.994;7.126;2024-02-23T06:13:29;7.40;57.50
9118;DHT22;4594;50.994;7.126;2024-02-23T06:15:55;7.40;57.40
9118;DHT22;4594;50.994;7.126;2024-02-23T06:18:21;7.30;57.30
9118;DHT22;4594;50.994;7.126;2024-02-23T06:20:49;7.30;57.30
9118;DHT22;4594;50.994;7.126;2024-02-23T06:23:16;7.30;56.90
9118;DHT22;4594;50.994;7.126;2024-02-23T06:25:43;7.30;57.30
9118;DHT22;4594;50.994;7.126;2024-02-23T06:28:11;7.30;57.80
9118;DHT22;4594;50.994;7.126;2024-02-23T06:30:37;7.30;58.20
9118;DHT22;4594;50.994;7.126;2024-02-23T06:33:03;7.30;58.50
9118;DHT22;4594;50.994;7.126;2024-02-23T06:35:29;7.30;58.50
9118;DHT22;4594;50.994;7.126;2024-02-23T06:37:56;7.30;58.60
9118;DHT22;4594;50.994;7.126;2024-02-23T06:40:22;7.30;58.40
9118;DHT22;4594;50.994;7.126;2024-02-23T06:42:48;7.30;58.20
9118;DHT22;4594;50.994;7.126;2024-02-23T06:45:13;7.40;58.20
9118;DHT22;4594;50.994;7.126;2024-02-23T06:47:39;7.30;58.20
9118;DHT22;4594;50.994;7.126;2024-02-23T06:50:06;7.40;58.50
9118;DHT22;4594;50.994;7.126;2024-02-23T06:52:34;7.40;58.60
9118;DHT22;4594;50.994;7.126;2024-02-23T06:54:59;7.40;58.80
9118;DHT22;4594;50.994;7.126;2024-02-23T06:57:25;7.40;58.90
9118;DHT22;4594;50.994;7.126;2024-02-23T06:59:51;7.50;58.90
9118;DHT22;4594;50.994;7.126;2024-02-23T07:02:17;7.50;58.90
9118;DHT22;4594;50.994;7.126;2024-02-23T07:04:43;7.50;59.00
9118;DHT22;4594;50.994;7.126;2024-02-23T07:07:09;7.50;59.10
9118;DHT22;4594;50.994;7.126;2024-02-23T07:09:34;7.50;59.10
9118;DHT22;4594;50.994;7.126;2024-02-23T07:12:00;7.60;59.20
9118;DHT22;4594;50.994;7.126;2024-02-23T07:14:26;7.60;59.50
9118;DHT22;4594;50.994;7.126;2024-02-23T07:16:52;7.60;59.60
9118;DHT22;4594;50.994;7.126;2024-02-23T07:19:17;7.60;59.70
9118;DHT22;4594;50.994;7.126;2024-02-23T07:21:45;7.70;60.20
9118;DHT22;4594;50.994;7.126;2024-02-23T07:24:11;7.80;60.70
9118;DHT22;4594;50.994;7.126;2024-02-23T07:26:37;7.80;60.90
9118;DHT22;4594;50.994;7.126;2024-02-23T07:29:03;7.90;61.10
9118;DHT22;4594;50.994;7.126;2024-02-23T07:31:29;7.90;61.30
9118;DHT22;4594;50.994;7.126;2024-02-23T07:33:54;8.00;61.70
9118;DHT22;4594;50.994;7.126;2024-02-23T07:36:20;8.00;61.80
9118;DHT22;4594;50.994;7.126;2024-02-23T07:38:47;8.10;62.10
9118;DHT22;4594;50.994;7.126;2024-02-23T07:41:12;8.10;62.30
9118;DHT22;4594;50.994;7.126;2024-02-23T07:43:40;8.20;62.60
9118;DHT22;4594;50.994;7.126;2024-02-23T07:46:06;8.30;63.00
9118;DHT22;4594;50.994;7.126;2024-02-23T07:48:34;8.30;62.80
9118;DHT22;4594;50.994;7.126;2024-02-23T07:51:02;8.40;63.00
9118;DHT22;4594;50.994;7.126;2024-02-23T07:53:28;8.50;63.10
9118;DHT22;4594;50.994;7.126;2024-02-23T07:55:54;8.50;62.90
9118;DHT22;4594;50.994;7.126;2024-02-23T07:58:20;8.60;62.70
9118;DHT22;4594;50.994;7.126;2024-02-23T08:00:46;8.70;64.90
9118;DHT22;4594;50.994;7.126;2024-02-23T08:03:12;8.90;68.20
9118;DHT22;4594;50.994;7.126;2024-02-23T08:05:38;9.30;71.60
9118;DHT22;4594;50.994;7.126;2024-02-23T08:08:04;9.70;73.20
9118;DHT22;4594;50.994;7.126;2024-02-23T08:10:32;10.10;73.30
9118;DHT22;4594;50.994;7.126;2024-02-23T08:12:58;10.70;74.70
9118;DHT22;4594;50.994;7.126;2024-02-23T08:15:24;11.00;75.40
9118;DHT22;4594;50.994;7.126;2024-02-23T08:17:50;11.40;74.00
9118;DHT22;4594;50.994;7.126;2024-02-23T08:20:16;11.80;71.80
9118;DHT22;4594;50.994;7.126;2024-02-23T08:22:41;12.00;69.90
9118;DHT22;4594;50.994;7.126;2024-02-23T08:25:07;12.10;68.10
9118;DHT22;4594;50.994;7.126;2024-02-23T08:27:33;12.10;66.40
9118;DHT22;4594;50.994;7.126;2024-02-23T08:29:59;12.20;65.50
9118;DHT22;4594;50.994;7.126;2024-02-23T08:32:25;12.20;63.90
9118;DHT22;4594;50.994;7.126;2024-02-23T08:34:50;12.10;62.50
9118;DHT22;4594;50.994;7.126;2024-02-23T08:37:18;12.10;61.60
9118;DHT22;4594;50.994;7.126;2024-02-23T08:39:44;12.00;61.30
9118;DHT22;4594;50.994;7.126;2024-02-23T08:42:10;12.00;60.70
9118;DHT22;4594;50.994;7.126;2024-02-23T08:44:35;11.90;59.90
9118;DHT22;4594;50.994;7.126;2024-02-23T08:47:03;11.80;59.20
9118;DHT22;4594;50.994;7.126;2024-02-23T08:49:29;11.70;59.00
9118;DHT22;4594;50.994;7.126;2024-02-23T08:51:55;11.60;58.80
9118;DHT22;4594;50.994;7.126;2024-02-23T08:54:23;11.60;59.20
9118;DHT22;4594;50.994;7.126;2024-02-23T08:56:49;11.50;59.30
9118;DHT22;4594;50.994;7.126;2024-02-23T08:59:14;11.40;59.20
9118;DHT22;4594;50.994;7.126;2024-02-23T09:01:40;11.40;59.90
9118;DHT22;4594;50.994;7.126;2024-02-23T09:04:06;11.30;59.60
9118;DHT22;4594;50.994;7.126;2024-02-23T09:06:31;11.30;59.60
9118;DHT22;4594;50.994;7.126;2024-02-23T09:08:58;11.20;58.80
9118;DHT22;4594;50.994;7.126;2024-02-23T09:11:24;11.20;58.70
9118;DHT22;4594;50.994;7.126;2024-02-23T09:13:49;11.10;58.60
9118;DHT22;4594;50.994;7.126;2024-02-23T09:16:15;11.10;58.70
9118;DHT22;4594;50.994;7.126;2024-02-23T09:18:41;11.00;58.80
9118;DHT22;4594;50.994;7.126;2024-02-23T09:21:07;11.00;59.00
9118;DHT22;4594;50.994;7.126;2024-02-23T09:23:32;10.90;58.90
9118;DHT22;4594;50.994;7.126;2024-02-23T09:25:59;10.90;58.90
9118;DHT22;4594;50.994;7.126;2024-02-23T09:28:24;10.90;58.60
9118;DHT22;4594;50.994;7.126;2024-02-23T09:30:50;10.80;58.80
9118;DHT22;4594;50.994;7.126;2024-02-23T09:33:16;10.80;58.80
9118;DHT22;4594;50.994;7.126;2024-02-23T09:35:41;10.80;59.00
9118;DHT22;4594;50.994;7.126;2024-02-23T09:38:07;10.70;59.00
9118;DHT22;4594;50.994;7.126;2024-02-23T09:40:32;10.70;59.10
9118;DHT22;4594;50.994;7.126;2024-02-23T09:42:59;10.70;59.10
9118;DHT22;4594;50.994;7.126;2024-02-23T09:45:27;10.70;59.10
9118;DHT22;4594;50.994;7.126;2024-02-23T09:47:56;10.70;58.30
9118;DHT22;4594;50.994;7.126;2024-02-23T09:50:24;10.70;59.00
9118;DHT22;4594;50.994;7.126;2024-02-23T09:52:50;10.70;59.70
9118;DHT22;4594;50.994;7.126;2024-02-23T09:55:17;10.70;60.70
9118;DHT22;4594;50.994;7.126;2024-02-23T09:57:47;10.70;61.20
9118;DHT22;4594;50.994;7.126;2024-02-23T10:00:17;10.80;61.20
9118;DHT22;4594;50.994;7.126;2024-02-23T10:02:43;10.80;62.10
9118;DHT22;4594;50.994;7.126;2024-02-23T10:05:10;10.90;62.20
9118;DHT22;4594;50.994;7.126;2024-02-23T10:07:37;10.90;61.00
9118;DHT22;4594;50.994;7.126;2024-02-23T10:10:07;11.00;61.60
9118;DHT22;4594;50.994;7.126;2024-02-23T10:12:34;11.00;59.90
9118;DHT22;4594;50.994;7.126;2024-02-23T10:15:01;11.00;61.40
9118;DHT22;4594;50.994;7.126;2024-02-23T10:17:30;11.00;61.50
9118;DHT22;4594;50.994;7.126;2024-02-23T10:19:56;11.00;61.30
9118;DHT22;4594;50.994;7.126;2024-02-23T10:22:23;11.10;61.20
9118;DHT22;4594;50.994;7.126;2024-02-23T10:24:50;11.10;61.00
9118;DHT22;4594;50.994;7.126;2024-02-23T10:27:17;11.10;60.90
9118;DHT22;4594;50.994;7.126;2024-02-23T10:29:43;11.10;61.10
9118;DHT22;4594;50.994;7.126;2024-02-23T10:32:14;11.10;61.40
9118;DHT22;4594;50.994;7.126;2024-02-23T10:34:42;11.10;59.40
9118;DHT22;4594;50.994;7.126;2024-02-23T10:37:09;11.20;59.70
9118;DHT22;4594;50.994;7.126;2024-02-23T10:39:38;11.20;61.10
9118;DHT22;4594;50.994;7.126;2024-02-23T10:42:08;11.20;59.40
9118;DHT22;4594;50.994;7.126;2024-02-23T10:44:35;11.30;62.60
9118;DHT22;4594;50.994;7.126;2024-02-23T10:47:04;11.40;63.90
9118;DHT22;4594;50.994;7.126;2024-02-23T10:49:31;11.50;63.60
9118;DHT22;4594;50.994;7.126;2024-02-23T10:51:58;11.60;63.80
9118;DHT22;4594;50.994;7.126;2024-02-23T10:54:25;11.70;63.80
9118;DHT22;4594;50.994;7.126;2024-02-23T10:56:52;11.80;64.20
9118;DHT22;4594;50.994;7.126;2024-02-23T10:59:18;11.90;64.60
9118;DHT22;4594;50.994;7.126;2024-02-23T11:01:47;11.90;64.60
9118;DHT22;4594;50.994;7.126;2024-02-23T11:04:17;12.00;62.90
9118;DHT22;4594;50.994;7.126;2024-02-23T11:06:52;12.10;61.80
9118;DHT22;4594;50.994;7.126;2024-02-23T11:09:24;12.10;60.30
9118;DHT22;4594;50.994;7.126;2024-02-23T11:11:57;12.20;61.10
9118;DHT22;4594;50.994;7.126;2024-02-23T11:14:35;12.20;60.00
9118;DHT22;4594;50.994;7.126;2024-02-23T11:17:02;12.30;59.30
9118;DHT22;4594;50.994;7.126;2024-02-23T11:19:33;12.30;63.90
9118;DHT22;4594;50.994;7.126;2024-02-23T11:22:00;12.30;61.70
9118;DHT22;4594;50.994;7.126;2024-02-23T11:24:29;12.40;63.20
9118;DHT22;4594;50.994;7.126;2024-02-23T11:27:01;12.40;60.90
9118;DHT22;4594;50.994;7.126;2024-02-23T11:29:34;12.40;59.60
9118;DHT22;4594;50.994;7.126;2024-02-23T11:32:02;12.40;61.30
9118;DHT22;4594;50.994;7.126;2024-02-23T11:34:29;12.60;61.30
9118;DHT22;4594;50.994;7.126;2024-02-23T11:36:56;12.40;60.20
9118;DHT22;4594;50.994;7.126;2024-02-23T11:39:26;12.40;60.20
9118;DHT22;4594;50.994;7.126;2024-02-23T11:41:52;12.30;59.60
9118;DHT22;4594;50.994;7.126;2024-02-23T11:44:18;12.30;60.50
9118;DHT22;4594;50.994;7.126;2024-02-23T11:46:44;12.30;60.10
9118;DHT22;4594;50.994;7.126;2024-02-23T11:49:10;12.30;59.40
9118;DHT22;4594;50.994;7.126;2024-02-23T11:51:36;12.20;59.20
9118;DHT22;4594;50.994;7.126;2024-02-23T11:54:02;12.20;59.20
9118;DHT22;4594;50.994;7.126;2024-02-23T11:56:29;12.40;59.50
9118;DHT22;4594;50.994;7.126;2024-02-23T11:58:55;12.10;59.50
9118;DHT22;4594;50.994;7.126;2024-02-23T12:01:21;12.10;59.50
9118;DHT22;4594;50.994;7.126;2024-02-23T12:03:47;12.10;59.40
9118;DHT22;4594;50.994;7.126;2024-02-23T12:06:14;12.00;59.20
9118;DHT22;4594;50.994;7.126;2024-02-23T12:08:43;12.00;58.80
9118;DHT22;4594;50.994;7.126;2024-02-23T12:11:11;12.00;58.70
9118;DHT22;4594;50.994;7.126;2024-02-23T12:13:39;12.00;58.70
9118;DHT22;4594;50.994;7.126;2024-02-23T12:16:07;11.90;59.00
9118;DHT22;4594;50.994;7.126;2024-02-23T12:18:35;11.90;58.10
9118;DHT22;4594;50.994;7.126;2024-02-23T12:21:02;11.90;58.80
9118;DHT22;4594;50.994;7.126;2024-02-23T12:23:43;11.90;58.70
9118;DHT22;4594;50.994;7.126;2024-02-23T12:26:14;11.80;55.70
9118;DHT22;4594;50.994;7.126;2024-02-23T12:28:42;11.80;57.30
9118;DHT22;4594;50.994;7.126;2024-02-23T12:31:08;11.80;58.60
9118;DHT22;4594;50.994;7.126;2024-02-23T12:33:36;11.70;58.60
9118;DHT22;4594;50.994;7.126;2024-02-23T12:36:04;11.70;58.40
9118;DHT22;4594;50.994;7.126;2024-02-23T12:38:31;11.70;58.60
9118;DHT22;4594;50.994;7.126;2024-02-23T12:40:56;11.70;59.20
9118;DHT22;4594;50.994;7.126;2024-02-23T12:43:23;11.60;59.00
9118;DHT22;4594;50.994;7.126;2024-02-23T12:45:53;11.60;58.90
9118;DHT22;4594;50.994;7.126;2024-02-23T12:48:20;11.60;57.60
9118;DHT22;4594;50.994;7.126;2024-02-23T12:50:47;11.60;59.00
9118;DHT22;4594;50.994;7.126;2024-02-23T12:53:35;11.60;59.30
9118;DHT22;4594;50.994;7.126;2024-02-23T12:56:04;11.60;55.70
9118;DHT22;4594;50.994;7.126;2024-02-23T12:58:35;11.60;59.60
9118;DHT22;4594;50.994;7.126;2024-02-23T13:01:02;11.80;58.50
9118;DHT22;4594;50.994;7.126;2024-02-23T13:03:28;11.70;60.00
9118;DHT22;4594;50.994;7.126;2024-02-23T13:05:55;11.70;60.30
9118;DHT22;4594;50.994;7.126;2024-02-23T13:08:22;11.80;60.50
9118;DHT22;4594;50.994;7.126;2024-02-23T13:10:49;11.80;61.10
9118;DHT22;4594;50.994;7.126;2024-02-23T13:13:18;11.90;61.10
9118;DHT22;4594;50.994;7.126;2024-02-23T13:15:49;11.90;61.40
9118;DHT22;4594;50.994;7.126;2024-02-23T13:18:16;12.00;61.40
9118;DHT22;4594;50.994;7.126;2024-02-23T13:20:42;12.00;61.40
9118;DHT22;4594;50.994;7.126;2024-02-23T13:23:08;12.10;61.40
9118;DHT22;4594;50.994;7.126;2024-02-23T13:25:39;12.10;61.20
9118;DHT22;4594;50.994;7.126;2024-02-23T13:28:06;12.10;59.10
9118;DHT22;4594;50.994;7.126;2024-02-23T13:30:33;12.20;60.40
9118;DHT22;4594;50.994;7.126;2024-02-23T13:33:00;12.20;60.20
9118;DHT22;4594;50.994;7.126;2024-02-23T13:35:26;12.20;60.20
9118;DHT22;4594;50.994;7.126;2024-02-23T13:37:52;12.20;60.00
9118;DHT22;4594;50.994;7.126;2024-02-23T13:40:18;12.20;59.90
9118;DHT22;4594;50.994;7.126;2024-02-23T13:42:43;12.20;59.80
9118;DHT22;4594;50.994;7.126;2024-02-23T13:45:15;12.30;60.20
9118;DHT22;4594;50.994;7.126;2024-02-23T13:47:42;12.20;60.60
9118;DHT22;4594;50.994;7.126;2024-02-23T13:50:09;12.30;61.00
9118;DHT22;4594;50.994;7.126;2024-02-23T13:52:36;12.40;61.10
9118;DHT22;4594;50.994;7.126;2024-02-23T13:55:02;12.40;60.40
9118;DHT22;4594;50.994;7.126;2024-02-23T13:57:28;12.40;60.80
9118;DHT22;4594;50.994;7.126;2024-02-23T13:59:54;12.40;60.90
9118;DHT22;4594;50.994;7.126;2024-02-23T14:02:25;12.50;61.00
9118;DHT22;4594;50.994;7.126;2024-02-23T14:04:52;14.00;59.70
9118;DHT22;4594;50.994;7.126;2024-02-23T14:07:20;14.40;62.20
9118;DHT22;4594;50.994;7.126;2024-02-23T14:09:46;12.50;59.30
9118;DHT22;4594;50.994;7.126;2024-02-23T14:12:12;13.40;59.90
9118;DHT22;4594;50.994;7.126;2024-02-23T14:14:38;12.50;58.90
9118;DHT22;4594;50.994;7.126;2024-02-23T14:17:04;12.50;58.70
9118;DHT22;4594;50.994;7.126;2024-02-23T14:19:29;12.40;58.80
9118;DHT22;4594;50.994;7.126;2024-02-23T14:21:55;12.30;58.70
9118;DHT22;4594;50.994;7.126;2024-02-23T14:24:21;13.20;59.60
9118;DHT22;4594;50.994;7.126;2024-02-23T14:26:47;12.40;59.10
9118;DHT22;4594;50.994;7.126;2024-02-23T14:29:15;12.40;58.90
9118;DHT22;4594;50.994;7.126;2024-02-23T14:31:43;12.40;58.90
9118;DHT22;4594;50.994;7.126;2024-02-23T14:34:08;12.40;58.80
9118;DHT22;4594;50.994;7.126;2024-02-23T14:36:34;12.30;58.60
9118;DHT22;4594;50.994;7.126;2024-02-23T14:39:00;12.40;58.80
9118;DHT22;4594;50.994;7.126;2024-02-23T14:41:25;13.60;59.70
9118;DHT22;4594;50.994;7.126;2024-02-23T14:43:51;13.00;59.10
9118;DHT22;4594;50.994;7.126;2024-02-23T14:46:17;12.30;58.40
9118;DHT22;4594;50.994;7.126;2024-02-23T14:48:42;12.30;58.40
9118;DHT22;4594;50.994;7.126;2024-02-23T14:51:08;12.30;58.50
9118;DHT22;4594;50.994;7.126;2024-02-23T14:53:34;12.30;58.40
9118;DHT22;4594;50.994;7.126;2024-02-23T14:56:00;12.20;58.10
9118;DHT22;4594;50.994;7.126;2024-02-23T14:58:26;13.10;58.90
9118;DHT22;4594;50.994;7.126;2024-02-23T15:00:52;12.20;58.10
9118;DHT22;4594;50.994;7.126;2024-02-23T15:03:17;12.80;58.30
9118;DHT22;4594;50.994;7.126;2024-02-23T15:05:43;12.10;57.50
9118;DHT22;4594;50.994;7.126;2024-02-23T15:08:09;12.10;57.60
9118;DHT22;4594;50.994;7.126;2024-02-23T15:10:34;12.10;57.90
9118;DHT22;4594;50.994;7.126;2024-02-23T15:13:01;12.00;57.70
9118;DHT22;4594;50.994;7.126;2024-02-23T15:15:27;12.10;58.10
9118;DHT22;4594;50.994;7.126;2024-02-23T15:17:53;12.00;58.10
9118;DHT22;4594;50.994;7.126;2024-02-23T15:20:20;12.00;58.20
9118;DHT22;4594;50.994;7.126;2024-02-23T15:22:45;12.90;59.00
9118;DHT22;4594;50.994;7.126;2024-02-23T15:25:12;12.00;58.30
9118;DHT22;4594;50.994;7.126;2024-02-23T15:27:38;12.00;58.50
9118;DHT22;4594;50.994;7.126;2024-02-23T15:30:07;11.90;58.10
9118;DHT22;4594;50.994;7.126;2024-02-23T15:32:34;12.00;57.20
9118;DHT22;4594;50.994;7.126;2024-02-23T15:35:01;11.90;58.10
9118;DHT22;4594;50.994;7.126;2024-02-23T15:37:28;11.90;58.20
9118;DHT22;4594;50.994;7.126;2024-02-23T15:39:54;11.90;58.30
9118;DHT22;4594;50.994;7.126;2024-02-23T15:42:20;11.90;58.40
9118;DHT22;4594;50.994;7.126;2024-02-23T15:44:46;11.90;58.30
9118;DHT22;4594;50.994;7.126;2024-02-23T15:47:13;11.90;58.20
9118;DHT22;4594;50.994;7.126;2024-02-23T15:49:38;11.90;58.30
9118;DHT22;4594;50.994;7.126;2024-02-23T15:52:05;11.80;58.10
9118;DHT22;4594;50.994;7.126;2024-02-23T15:54:31;11.80;57.90
9118;DHT22;4594;50.994;7.126;2024-02-23T15:56:59;11.90;57.90
9118;DHT22;4594;50.994;7.126;2024-02-23T15:59:26;11.80;58.00
9118;DHT22;4594;50.994;7.126;2024-02-23T16:01:51;11.80;58.20
9118;DHT22;4594;50.994;7.126;2024-02-23T16:04:17;11.80;57.90
9118;DHT22;4594;50.994;7.126;2024-02-23T16:06:43;11.80;57.70